sensor_id;sensor_type;location;lat;lon;timestamp;P1;durP1;ratioP1;P2;durP2;ratioP2
65567;SDS011;52211;50.154;8.682;2022-09-09T00:04:44;2.67;;;2.47;;
65567;SDS011;52211;50.154;8.682;2022-09-09T00:07:53;2.57;;;2.47;;
65567;SDS011;52211;50.154;8.682;2022-09-09T00:10:34;2.40;;;2.30;;
65567;SDS011;52211;50.154;8.682;2022-09-09T00:21:36;2.43;;;2.33;;
65567;SDS011;52211;50.154;8.682;2022-09-09T00:24:23;2.40;;;2.30;;
65567;SDS011;52211;50.154;8.682;2022-09-09T00:27:04;2.37;;;2.20;;
65567;SDS011;52211;50.154;8.682;2022-09-09T00:32:49;2.40;;;2.30;;
65567;SDS011;52211;50.154;8.682;2022-09-09T00:38:04;2.50;;;2.40;;
65567;SDS011;52211;50.154;8.682;2022-09-09T00:40:50;2.57;;;2.37;;
65567;SDS011;52211;50.154;8.682;2022-09-09T00:46:02;2.23;;;2.13;;
65567;SDS011;52211;50.154;8.682;2022-09-09T00:51:59;2.50;;;2.40;;
65567;SDS011;52211;50.154;8.682;2022-09-09T00:55:05;2.57;;;2.40;;
65567;SDS011;52211;50.154;8.682;2022-09-09T00:57:44;2.90;;;2.70;;
65567;SDS011;52211;50.154;8.682;2022-09-09T01:00:34;2.73;;;2.50;;
65567;SDS011;52211;50.154;8.682;2022-09-09T01:17:05;2.70;;;2.50;;
65567;SDS011;52211;50.154;8.682;2022-09-09T01:19:58;3.20;;;2.57;;
65567;SDS011;52211;50.154;8.682;2022-09-09T01:29:02;2.40;;;2.30;;
65567;SDS011;52211;50.154;8.682;2022-09-09T01:32:01;2.93;;;2.67;;
65567;SDS011;52211;50.154;8.682;2022-09-09T01:35:03;2.70;;;2.40;;
65567;SDS011;52211;50.154;8.682;2022-09-09T01:37:38;2.80;;;2.60;;
65567;SDS011;52211;50.154;8.682;2022-09-09T01:40:05;3.03;;;2.77;;
65567;SDS011;52211;50.154;8.682;2022-09-09T01:42:32;2.50;;;2.40;;
65567;SDS011;52211;50.154;8.682;2022-09-09T01:45:04;2.93;;;2.70;;
65567;SDS011;52211;50.154;8.682;2022-09-09T01:47:32;2.67;;;2.47;;
65567;SDS011;52211;50.154;8.682;2022-09-09T01:50:00;2.87;;;2.63;;
65567;SDS011;52211;50.154;8.682;2022-09-09T01:52:31;3.13;;;2.60;;
65567;SDS011;52211;50.154;8.682;2022-09-09T01:55:05;3.57;;;2.57;;
65567;SDS011;52211;50.154;8.682;2022-09-09T01:57:33;2.40;;;2.30;;
65567;SDS011;52211;50.154;8.682;2022-09-09T02:00:42;2.50;;;2.40;;
65567;SDS011;52211;50.154;8.682;2022-09-09T02:03:29;2.50;;;2.40;;
65567;SDS011;52211;50.154;8.682;2022-09-09T02:09:00;2.77;;;2.67;;
65567;SDS011;52211;50.154;8.682;2022-09-09T02:11:34;2.73;;;2.63;;
65567;SDS011;52211;50.154;8.682;2022-09-09T02:14:08;2.77;;;2.67;;
65567;SDS011;52211;50.154;8.682;2022-09-09T02:16:44;3.10;;;2.90;;
65567;SDS011;52211;50.154;8.682;2022-09-09T02:19:22;4.37;;;2.40;;
65567;SDS011;52211;50.154;8.682;2022-09-09T02:21:57;2.30;;;2.20;;
65567;SDS011;52211;50.154;8.682;2022-09-09T02:24:28;2.53;;;2.40;;
65567;SDS011;52211;50.154;8.682;2022-09-09T02:27:03;2.57;;;2.37;;
65567;SDS011;52211;50.154;8.682;2022-09-09T02:29:41;2.50;;;2.40;;
65567;SDS011;52211;50.154;8.682;2022-09-09T02:32:21;2.67;;;2.50;;
65567;SDS011;52211;50.154;8.682;2022-09-09T02:34:52;2.40;;;2.30;;
65567;SDS011;52211;50.154;8.682;2022-09-09T02:37:32;2.90;;;2.50;;
65567;SDS011;52211;50.154;8.682;2022-09-09T02:40:09;3.83;;;2.60;;
65567;SDS011;52211;50.154;8.682;2022-09-09T02:42:41;2.63;;;2.43;;
65567;SDS011;52211;50.154;8.682;2022-09-09T02:45:16;2.60;;;2.50;;
65567;SDS011;52211;50.154;8.682;2022-09-09T02:48:00;2.80;;;2.30;;
65567;SDS011;52211;50.154;8.682;2022-09-09T02:56:38;2.87;;;2.50;;
65567;SDS011;52211;50.154;8.682;2022-09-09T02:59:11;2.37;;;2.17;;
65567;SDS011;52211;50.154;8.682;2022-09-09T03:01:40;2.50;;;2.37;;
65567;SDS011;52211;50.154;8.682;2022-09-09T03:04:10;3.27;;;2.70;;
65567;SDS011;52211;50.154;8.682;2022-09-09T03:06:37;3.13;;;2.83;;
65567;SDS011;52211;50.154;8.682;2022-09-09T03:09:03;3.23;;;3.03;;
65567;SDS011;52211;50.154;8.682;2022-09-09T03:11:34;3.47;;;3.27;;
65567;SDS011;52211;50.154;8.682;2022-09-09T03:14:04;2.57;;;2.47;;
65567;SDS011;52211;50.154;8.682;2022-09-09T03:16:31;2.87;;;2.67;;
65567;SDS011;52211;50.154;8.682;2022-09-09T03:19:00;2.70;;;2.60;;
65567;SDS011;52211;50.154;8.682;2022-09-09T03:21:27;2.83;;;2.70;;
65567;SDS011;52211;50.154;8.682;2022-09-09T03:23:55;2.77;;;2.63;;
65567;SDS011;52211;50.154;8.682;2022-09-09T03:26:24;3.20;;;3.00;;
65567;SDS011;52211;50.154;8.682;2022-09-09T03:28:51;2.77;;;2.67;;
65567;SDS011;52211;50.154;8.682;2022-09-09T03:31:23;3.17;;;2.97;;
65567;SDS011;52211;50.154;8.682;2022-09-09T03:33:59;3.20;;;3.00;;
65567;SDS011;52211;50.154;8.682;2022-09-09T03:36:26;3.50;;;3.00;;
65567;SDS011;52211;50.154;8.682;2022-09-09T03:38:55;3.93;;;3.53;;
65567;SDS011;52211;50.154;8.682;2022-09-09T03:41:22;4.20;;;3.27;;
65567;SDS011;52211;50.154;8.682;2022-09-09T03:43:52;2.87;;;2.70;;
65567;SDS011;52211;50.154;8.682;2022-09-09T03:46:20;2.60;;;2.50;;
65567;SDS011;52211;50.154;8.682;2022-09-09T03:48:50;3.53;;;3.30;;
65567;SDS011;52211;50.154;8.682;2022-09-09T03:51:23;3.63;;;2.67;;
65567;SDS011;52211;50.154;8.682;2022-09-09T03:53:53;3.00;;;2.80;;
65567;SDS011;52211;50.154;8.682;2022-09-09T03:56:26;2.80;;;2.60;;
65567;SDS011;52211;50.154;8.682;2022-09-09T03:58:53;3.13;;;2.93;;
65567;SDS011;52211;50.154;8.682;2022-09-09T04:01:22;2.90;;;2.70;;
65567;SDS011;52211;50.154;8.682;2022-09-09T04:03:49;3.20;;;3.00;;
65567;SDS011;52211;50.154;8.682;2022-09-09T04:06:16;3.63;;;3.37;;
65567;SDS011;52211;50.154;8.682;2022-09-09T04:08:43;2.83;;;2.67;;
65567;SDS011;52211;50.154;8.682;2022-09-09T04:11:11;3.23;;;3.10;;
65567;SDS011;52211;50.154;8.682;2022-09-09T04:13:37;3.90;;;2.83;;
65567;SDS011;52211;50.154;8.682;2022-09-09T04:16:10;3.33;;;3.20;;
65567;SDS011;52211;50.154;8.682;2022-09-09T04:18:42;4.07;;;3.33;;
65567;SDS011;52211;50.154;8.682;2022-09-09T04:21:11;3.80;;;3.50;;
65567;SDS011;52211;50.154;8.682;2022-09-09T04:23:38;3.70;;;3.30;;
65567;SDS011;52211;50.154;8.682;2022-09-09T04:26:08;3.27;;;3.07;;
65567;SDS011;52211;50.154;8.682;2022-09-09T04:28:37;3.20;;;3.10;;
65567;SDS011;52211;50.154;8.682;2022-09-09T04:31:05;3.43;;;3.13;;
65567;SDS011;52211;50.154;8.682;2022-09-09T04:33:35;3.40;;;3.10;;
65567;SDS011;52211;50.154;8.682;2022-09-09T04:36:06;2.97;;;2.80;;
65567;SDS011;52211;50.154;8.682;2022-09-09T04:38:36;3.20;;;3.00;;
65567;SDS011;52211;50.154;8.682;2022-09-09T04:41:04;3.57;;;3.37;;
65567;SDS011;52211;50.154;8.682;2022-09-09T04:43:34;3.40;;;3.20;;
65567;SDS011;52211;50.154;8.682;2022-09-09T04:46:06;3.23;;;3.03;;
65567;SDS011;52211;50.154;8.682;2022-09-09T04:48:35;3.30;;;3.20;;
65567;SDS011;52211;50.154;8.682;2022-09-09T04:51:03;3.17;;;3.07;;
65567;SDS011;52211;50.154;8.682;2022-09-09T04:53:37;3.43;;;3.13;;
65567;SDS011;52211;50.154;8.682;2022-09-09T04:56:11;3.70;;;3.37;;
65567;SDS011;52211;50.154;8.682;2022-09-09T04:58:41;3.60;;;3.40;;
65567;SDS011;52211;50.154;8.682;2022-09-09T05:01:16;3.23;;;3.13;;
65567;SDS011;52211;50.154;8.682;2022-09-09T05:03:51;3.53;;;3.33;;
65567;SDS011;52211;50.154;8.682;2022-09-09T05:06:22;3.63;;;3.23;;
65567;SDS011;52211;50.154;8.682;2022-09-09T05:08:49;3.70;;;3.40;;
65567;SDS011;52211;50.154;8.682;2022-09-09T05:11:20;3.77;;;3.47;;
65567;SDS011;52211;50.154;8.682;2022-09-09T05:13:53;3.27;;;3.00;;
65567;SDS011;52211;50.154;8.682;2022-09-09T05:16:25;3.90;;;3.57;;
65567;SDS011;52211;50.154;8.682;2022-09-09T05:18:56;3.67;;;3.47;;
65567;SDS011;52211;50.154;8.682;2022-09-09T05:21:23;3.40;;;3.20;;
65567;SDS011;52211;50.154;8.682;2022-09-09T05:23:54;3.50;;;3.30;;
65567;SDS011;52211;50.154;8.682;2022-09-09T05:26:23;3.70;;;3.50;;
65567;SDS011;52211;50.154;8.682;2022-09-09T05:28:50;3.27;;;3.10;;
65567;SDS011;52211;50.154;8.682;2022-09-09T05:31:19;3.20;;;3.00;;
65567;SDS011;52211;50.154;8.682;2022-09-09T05:33:46;3.40;;;3.10;;
65567;SDS011;52211;50.154;8.682;2022-09-09T05:36:16;3.77;;;3.10;;
65567;SDS011;52211;50.154;8.682;2022-09-09T05:38:48;4.40;;;3.70;;
65567;SDS011;52211;50.154;8.682;2022-09-09T05:41:19;3.30;;;3.20;;
65567;SDS011;52211;50.154;8.682;2022-09-09T05:43:49;3.73;;;3.43;;
65567;SDS011;52211;50.154;8.682;2022-09-09T05:46:17;3.30;;;3.10;;
65567;SDS011;52211;50.154;8.682;2022-09-09T05:48:52;3.80;;;3.43;;
65567;SDS011;52211;50.154;8.682;2022-09-09T05:51:23;3.50;;;3.00;;
65567;SDS011;52211;50.154;8.682;2022-09-09T05:53:56;3.37;;;3.10;;
65567;SDS011;52211;50.154;8.682;2022-09-09T05:56:26;4.73;;;3.00;;
65567;SDS011;52211;50.154;8.682;2022-09-09T05:58:57;3.00;;;2.83;;
65567;SDS011;52211;50.154;8.682;2022-09-09T06:01:31;4.30;;;3.90;;
65567;SDS011;52211;50.154;8.682;2022-09-09T06:04:06;2.90;;;2.80;;
65567;SDS011;52211;50.154;8.682;2022-09-09T06:06:35;3.33;;;3.13;;
65567;SDS011;52211;50.154;8.682;2022-09-09T06:09:08;3.30;;;3.20;;
65567;SDS011;52211;50.154;8.682;2022-09-09T06:11:39;3.10;;;3.00;;
65567;SDS011;52211;50.154;8.682;2022-09-09T06:14:09;3.20;;;3.00;;
65567;SDS011;52211;50.154;8.682;2022-09-09T06:16:38;3.10;;;2.90;;
65567;SDS011;52211;50.154;8.682;2022-09-09T06:19:10;3.20;;;3.00;;
65567;SDS011;52211;50.154;8.682;2022-09-09T06:21:40;3.10;;;2.90;;
65567;SDS011;52211;50.154;8.682;2022-09-09T06:24:15;3.37;;;3.20;;
65567;SDS011;52211;50.154;8.682;2022-09-09T06:26:47;3.07;;;2.97;;
65567;SDS011;52211;50.154;8.682;2022-09-09T06:29:14;3.27;;;3.07;;
65567;SDS011;52211;50.154;8.682;2022-09-09T06:31:43;3.93;;;3.73;;
65567;SDS011;52211;50.154;8.682;2022-09-09T06:34:13;2.87;;;2.73;;
65567;SDS011;52211;50.154;8.682;2022-09-09T06:36:41;2.90;;;2.80;;
65567;SDS011;52211;50.154;8.682;2022-09-09T06:39:11;2.97;;;2.87;;
65567;SDS011;52211;50.154;8.682;2022-09-09T06:41:40;5.07;;;3.40;;
65567;SDS011;52211;50.154;8.682;2022-09-09T06:44:08;3.13;;;2.93;;
65567;SDS011;52211;50.154;8.682;2022-09-09T06:46:38;4.07;;;3.37;;
65567;SDS011;52211;50.154;8.682;2022-09-09T06:49:05;3.03;;;2.93;;
65567;SDS011;52211;50.154;8.682;2022-09-09T06:51:37;3.20;;;2.97;;
65567;SDS011;52211;50.154;8.682;2022-09-09T06:54:10;3.90;;;3.20;;
65567;SDS011;52211;50.154;8.682;2022-09-09T06:56:39;3.20;;;3.10;;
65567;SDS011;52211;50.154;8.682;2022-09-09T06:59:09;3.17;;;2.97;;
65567;SDS011;52211;50.154;8.682;2022-09-09T07:01:38;3.20;;;3.00;;
65567;SDS011;52211;50.154;8.682;2022-09-09T07:04:18;4.10;;;3.70;;
65567;SDS011;52211;50.154;8.682;2022-09-09T07:06:45;3.23;;;3.00;;
65567;SDS011;52211;50.154;8.682;2022-09-09T07:09:15;3.33;;;2.87;;
65567;SDS011;52211;50.154;8.682;2022-09-09T07:11:44;4.30;;;3.30;;
65567;SDS011;52211;50.154;8.682;2022-09-09T07:14:18;4.43;;;3.00;;
65567;SDS011;52211;50.154;8.682;2022-09-09T07:16:48;3.00;;;2.90;;
65567;SDS011;52211;50.154;8.682;2022-09-09T07:19:22;3.83;;;2.80;;
65567;SDS011;52211;50.154;8.682;2022-09-09T07:21:56;3.00;;;2.90;;
65567;SDS011;52211;50.154;8.682;2022-09-09T07:24:23;2.90;;;2.70;;
65567;SDS011;52211;50.154;8.682;2022-09-09T07:26:52;2.90;;;2.80;;
65567;SDS011;52211;50.154;8.682;2022-09-09T07:29:19;3.27;;;3.00;;
65567;SDS011;52211;50.154;8.682;2022-09-09T07:31:53;3.00;;;2.87;;
65567;SDS011;52211;50.154;8.682;2022-09-09T07:34:20;3.33;;;3.10;;
65567;SDS011;52211;50.154;8.682;2022-09-09T07:36:47;4.83;;;3.00;;
65567;SDS011;52211;50.154;8.682;2022-09-09T07:39:19;3.47;;;2.70;;
65567;SDS011;52211;50.154;8.682;2022-09-09T07:41:48;3.43;;;3.23;;
65567;SDS011;52211;50.154;8.682;2022-09-09T07:44:23;3.47;;;3.17;;
65567;SDS011;52211;50.154;8.682;2022-09-09T07:46:53;3.90;;;3.60;;
65567;SDS011;52211;50.154;8.682;2022-09-09T07:49:23;3.57;;;3.20;;
65567;SDS011;52211;50.154;8.682;2022-09-09T07:52:00;3.23;;;3.00;;
65567;SDS011;52211;50.154;8.682;2022-09-09T07:54:30;3.30;;;3.20;;
65567;SDS011;52211;50.154;8.682;2022-09-09T07:57:01;3.30;;;3.00;;
65567;SDS011;52211;50.154;8.682;2022-09-09T07:59:29;3.17;;;3.07;;
65567;SDS011;52211;50.154;8.682;2022-09-09T08:01:56;3.23;;;2.93;;
65567;SDS011;52211;50.154;8.682;2022-09-09T08:04:24;3.87;;;3.03;;
65567;SDS011;52211;50.154;8.682;2022-09-09T08:06:55;3.63;;;3.30;;
65567;SDS011;52211;50.154;8.682;2022-09-09T08:09:26;4.40;;;3.53;;
65567;SDS011;52211;50.154;8.682;2022-09-09T08:11:57;3.20;;;3.00;;
65567;SDS011;52211;50.154;8.682;2022-09-09T08:14:24;3.20;;;3.10;;
65567;SDS011;52211;50.154;8.682;2022-09-09T08:16:56;3.73;;;3.20;;
65567;SDS011;52211;50.154;8.682;2022-09-09T08:19:28;3.33;;;3.23;;
65567;SDS011;52211;50.154;8.682;2022-09-09T08:21:56;3.77;;;3.57;;
65567;SDS011;52211;50.154;8.682;2022-09-09T08:24:22;3.63;;;3.17;;
65567;SDS011;52211;50.154;8.682;2022-09-09T08:26:52;5.50;;;2.97;;
65567;SDS011;52211;50.154;8.682;2022-09-09T08:29:19;3.33;;;3.23;;
65567;SDS011;52211;50.154;8.682;2022-09-09T08:31:53;3.53;;;3.33;;
65567;SDS011;52211;50.154;8.682;2022-09-09T08:34:24;3.00;;;2.80;;
65567;SDS011;52211;50.154;8.682;2022-09-09T08:36:54;2.97;;;2.80;;
65567;SDS011;52211;50.154;8.682;2022-09-09T08:39:23;3.47;;;3.30;;
65567;SDS011;52211;50.154;8.682;2022-09-09T08:52:36;3.03;;;2.93;;
65567;SDS011;52211;50.154;8.682;2022-09-09T08:55:40;5.00;;;2.97;;
65567;SDS011;52211;50.154;8.682;2022-09-09T08:58:19;3.57;;;3.20;;
65567;SDS011;52211;50.154;8.682;2022-09-09T09:00:55;5.10;;;3.40;;
65567;SDS011;52211;50.154;8.682;2022-09-09T09:11:37;3.50;;;3.30;;
65567;SDS011;52211;50.154;8.682;2022-09-09T09:14:25;3.40;;;3.10;;
65567;SDS011;52211;50.154;8.682;2022-09-09T09:19:31;3.37;;;3.10;;
65567;SDS011;52211;50.154;8.682;2022-09-09T09:30:29;3.40;;;2.90;;
65567;SDS011;52211;50.154;8.682;2022-09-09T09:35:50;3.83;;;3.40;;
65567;SDS011;52211;50.154;8.682;2022-09-09T09:38:22;3.90;;;3.40;;
65567;SDS011;52211;50.154;8.682;2022-09-09T09:41:16;3.43;;;3.23;;
65567;SDS011;52211;50.154;8.682;2022-09-09T09:43:56;3.30;;;3.10;;
65567;SDS011;52211;50.154;8.682;2022-09-09T09:46:24;3.77;;;3.30;;
65567;SDS011;52211;50.154;8.682;2022-09-09T09:49:00;3.47;;;3.17;;
65567;SDS011;52211;50.154;8.682;2022-09-09T09:51:31;3.50;;;3.30;;
65567;SDS011;52211;50.154;8.682;2022-09-09T09:54:17;3.20;;;3.00;;
65567;SDS011;52211;50.154;8.682;2022-09-09T09:56:55;2.93;;;2.83;;
65567;SDS011;52211;50.154;8.682;2022-09-09T09:59:32;2.97;;;2.70;;
65567;SDS011;52211;50.154;8.682;2022-09-09T10:04:46;3.53;;;3.10;;
65567;SDS011;52211;50.154;8.682;2022-09-09T10:07:18;3.20;;;3.00;;
65567;SDS011;52211;50.154;8.682;2022-09-09T10:09:51;3.00;;;2.80;;
65567;SDS011;52211;50.154;8.682;2022-09-09T10:17:52;3.53;;;3.20;;
65567;SDS011;52211;50.154;8.682;2022-09-09T10:23:31;3.30;;;3.00;;
65567;SDS011;52211;50.154;8.682;2022-09-09T10:37:54;3.10;;;2.90;;
65567;SDS011;52211;50.154;8.682;2022-09-09T10:46:15;4.43;;;3.70;;
65567;SDS011;52211;50.154;8.682;2022-09-09T10:49:21;7.33;;;4.37;;
65567;SDS011;52211;50.154;8.682;2022-09-09T10:55:10;3.60;;;3.40;;
65567;SDS011;52211;50.154;8.682;2022-09-09T10:57:45;3.77;;;3.50;;
65567;SDS011;52211;50.154;8.682;2022-09-09T11:03:05;3.80;;;3.50;;
65567;SDS011;52211;50.154;8.682;2022-09-09T11:05:44;3.60;;;3.30;;
65567;SDS011;52211;50.154;8.682;2022-09-09T11:08:21;3.63;;;3.43;;
65567;SDS011;52211;50.154;8.682;2022-09-09T11:11:04;4.50;;;3.77;;
65567;SDS011;52211;50.154;8.682;2022-09-09T11:16:48;4.50;;;4.20;;
65567;SDS011;52211;50.154;8.682;2022-09-09T11:22:35;4.30;;;4.10;;
65567;SDS011;52211;50.154;8.682;2022-09-09T11:31:16;4.73;;;4.20;;
65567;SDS011;52211;50.154;8.682;2022-09-09T11:40:42;4.40;;;4.10;;
65567;SDS011;52211;50.154;8.682;2022-09-09T11:45:49;3.73;;;3.53;;
65567;SDS011;52211;50.154;8.682;2022-09-09T11:51:09;3.80;;;3.60;;
65567;SDS011;52211;50.154;8.682;2022-09-09T11:56:24;4.00;;;3.70;;
65567;SDS011;52211;50.154;8.682;2022-09-09T11:59:22;4.27;;;3.97;;
65567;SDS011;52211;50.154;8.682;2022-09-09T12:04:41;4.40;;;4.10;;
65567;SDS011;52211;50.154;8.682;2022-09-09T12:13:16;4.20;;;4.00;;
65567;SDS011;52211;50.154;8.682;2022-09-09T12:15:50;3.60;;;3.40;;
65567;SDS011;52211;50.154;8.682;2022-09-09T12:18:23;3.80;;;3.60;;
65567;SDS011;52211;50.154;8.682;2022-09-09T12:21:03;3.73;;;3.43;;
65567;SDS011;52211;50.154;8.682;2022-09-09T12:23:57;3.83;;;3.50;;
65567;SDS011;52211;50.154;8.682;2022-09-09T12:26:50;3.43;;;3.20;;
65567;SDS011;52211;50.154;8.682;2022-09-09T12:29:43;3.73;;;3.53;;
65567;SDS011;52211;50.154;8.682;2022-09-09T12:32:37;3.83;;;3.63;;
65567;SDS011;52211;50.154;8.682;2022-09-09T12:35:11;3.50;;;3.30;;
65567;SDS011;52211;50.154;8.682;2022-09-09T12:37:55;3.50;;;3.20;;
65567;SDS011;52211;50.154;8.682;2022-09-09T12:40:29;3.60;;;3.30;;
65567;SDS011;52211;50.154;8.682;2022-09-09T12:43:19;3.40;;;3.30;;
65567;SDS011;52211;50.154;8.682;2022-09-09T12:45:49;3.40;;;3.30;;
65567;SDS011;52211;50.154;8.682;2022-09-09T12:48:28;3.53;;;3.43;;
65567;SDS011;52211;50.154;8.682;2022-09-09T12:51:05;3.07;;;2.93;;
65567;SDS011;52211;50.154;8.682;2022-09-09T12:53:47;3.50;;;3.40;;
65567;SDS011;52211;50.154;8.682;2022-09-09T12:56:21;3.53;;;3.43;;
65567;SDS011;52211;50.154;8.682;2022-09-09T12:58:58;4.27;;;3.10;;
65567;SDS011;52211;50.154;8.682;2022-09-09T13:01:30;3.10;;;2.93;;
65567;SDS011;52211;50.154;8.682;2022-09-09T13:04:02;2.90;;;2.80;;
65567;SDS011;52211;50.154;8.682;2022-09-09T13:06:46;3.03;;;2.90;;
65567;SDS011;52211;50.154;8.682;2022-09-09T13:09:18;3.00;;;2.90;;
65567;SDS011;52211;50.154;8.682;2022-09-09T13:11:49;2.70;;;2.60;;
65567;SDS011;52211;50.154;8.682;2022-09-09T13:14:26;2.80;;;2.70;;
65567;SDS011;52211;50.154;8.682;2022-09-09T13:17:01;3.03;;;2.93;;
65567;SDS011;52211;50.154;8.682;2022-09-09T13:19:32;3.27;;;3.07;;
65567;SDS011;52211;50.154;8.682;2022-09-09T13:22:39;3.30;;;3.10;;
65567;SDS011;52211;50.154;8.682;2022-09-09T13:25:05;3.00;;;2.80;;
65567;SDS011;52211;50.154;8.682;2022-09-09T13:27:53;3.00;;;2.90;;
65567;SDS011;52211;50.154;8.682;2022-09-09T13:30:35;3.33;;;3.23;;
65567;SDS011;52211;50.154;8.682;2022-09-09T13:35:47;3.17;;;3.00;;
65567;SDS011;52211;50.154;8.682;2022-09-09T13:38:25;2.97;;;2.87;;
65567;SDS011;52211;50.154;8.682;2022-09-09T13:43:31;3.00;;;2.90;;
65567;SDS011;52211;50.154;8.682;2022-09-09T13:51:37;2.70;;;2.60;;
65567;SDS011;52211;50.154;8.682;2022-09-09T13:54:09;2.90;;;2.80;;
65567;SDS011;52211;50.154;8.682;2022-09-09T13:56:41;2.80;;;2.70;;
65567;SDS011;52211;50.154;8.682;2022-09-09T13:59:12;3.03;;;2.93;;
65567;SDS011;52211;50.154;8.682;2022-09-09T14:01:41;2.77;;;2.67;;
65567;SDS011;52211;50.154;8.682;2022-09-09T14:04:09;3.00;;;2.90;;
65567;SDS011;52211;50.154;8.682;2022-09-09T14:06:38;2.90;;;2.80;;
65567;SDS011;52211;50.154;8.682;2022-09-09T14:09:06;3.00;;;2.70;;
65567;SDS011;52211;50.154;8.682;2022-09-09T14:11:42;2.70;;;2.60;;
65567;SDS011;52211;50.154;8.682;2022-09-09T14:14:13;2.83;;;2.73;;
65567;SDS011;52211;50.154;8.682;2022-09-09T14:16:42;2.83;;;2.73;;
65567;SDS011;52211;50.154;8.682;2022-09-09T14:19:14;2.90;;;2.80;;
65567;SDS011;52211;50.154;8.682;2022-09-09T14:21:44;2.80;;;2.70;;
65567;SDS011;52211;50.154;8.682;2022-09-09T14:24:11;3.00;;;2.80;;
65567;SDS011;52211;50.154;8.682;2022-09-09T14:26:42;2.67;;;2.57;;
65567;SDS011;52211;50.154;8.682;2022-09-09T14:29:09;2.90;;;2.80;;
65567;SDS011;52211;50.154;8.682;2022-09-09T14:31:36;3.17;;;3.07;;
65567;SDS011;52211;50.154;8.682;2022-09-09T14:34:03;2.77;;;2.63;;
65567;SDS011;52211;50.154;8.682;2022-09-09T14:36:30;2.63;;;2.53;;
65567;SDS011;52211;50.154;8.682;2022-09-09T14:38:59;3.13;;;3.00;;
65567;SDS011;52211;50.154;8.682;2022-09-09T14:41:31;2.90;;;2.70;;
65567;SDS011;52211;50.154;8.682;2022-09-09T14:43:58;2.50;;;2.40;;
65567;SDS011;52211;50.154;8.682;2022-09-09T14:46:27;2.73;;;2.60;;
65567;SDS011;52211;50.154;8.682;2022-09-09T14:48:59;2.90;;;2.70;;
65567;SDS011;52211;50.154;8.682;2022-09-09T14:51:26;2.87;;;2.77;;
65567;SDS011;52211;50.154;8.682;2022-09-09T14:53:55;2.83;;;2.70;;
65567;SDS011;52211;50.154;8.682;2022-09-09T14:56:28;2.93;;;2.77;;
65567;SDS011;52211;50.154;8.682;2022-09-09T14:59:00;3.30;;;3.10;;
65567;SDS011;52211;50.154;8.682;2022-09-09T15:01:30;3.17;;;2.90;;
65567;SDS011;52211;50.154;8.682;2022-09-09T15:04:01;3.17;;;3.07;;
65567;SDS011;52211;50.154;8.682;2022-09-09T15:06:33;3.47;;;3.10;;
65567;SDS011;52211;50.154;8.682;2022-09-09T15:09:07;3.00;;;2.80;;
65567;SDS011;52211;50.154;8.682;2022-09-09T15:11:37;3.07;;;2.87;;
65567;SDS011;52211;50.154;8.682;2022-09-09T15:14:05;3.23;;;2.90;;
65567;SDS011;52211;50.154;8.682;2022-09-09T15:16:37;3.13;;;2.90;;
65567;SDS011;52211;50.154;8.682;2022-09-09T15:19:06;3.07;;;2.90;;
65567;SDS011;52211;50.154;8.682;2022-09-09T15:21:36;3.33;;;3.00;;
65567;SDS011;52211;50.154;8.682;2022-09-09T15:24:06;3.53;;;3.33;;
65567;SDS011;52211;50.154;8.682;2022-09-09T15:26:34;3.03;;;2.93;;
65567;SDS011;52211;50.154;8.682;2022-09-09T15:29:04;3.37;;;3.00;;
65567;SDS011;52211;50.154;8.682;2022-09-09T15:31:35;2.57;;;2.57;;
65567;SDS011;52211;50.154;8.682;2022-09-09T15:34:08;3.47;;;3.27;;
65567;SDS011;52211;50.154;8.682;2022-09-09T15:36:40;2.80;;;2.70;;
65567;SDS011;52211;50.154;8.682;2022-09-09T15:39:16;3.00;;;2.90;;
65567;SDS011;52211;50.154;8.682;2022-09-09T15:41:44;2.67;;;2.57;;
65567;SDS011;52211;50.154;8.682;2022-09-09T15:44:14;2.70;;;2.60;;
65567;SDS011;52211;50.154;8.682;2022-09-09T15:46:52;2.90;;;2.80;;
65567;SDS011;52211;50.154;8.682;2022-09-09T15:49:25;2.50;;;2.40;;
65567;SDS011;52211;50.154;8.682;2022-09-09T15:51:53;2.50;;;2.40;;
65567;SDS011;52211;50.154;8.682;2022-09-09T15:54:24;2.80;;;2.70;;
65567;SDS011;52211;50.154;8.682;2022-09-09T15:56:53;3.20;;;3.00;;
65567;SDS011;52211;50.154;8.682;2022-09-09T15:59:26;2.60;;;2.50;;
65567;SDS011;52211;50.154;8.682;2022-09-09T16:01:58;2.60;;;2.40;;
65567;SDS011;52211;50.154;8.682;2022-09-09T16:04:29;2.60;;;2.50;;
65567;SDS011;52211;50.154;8.682;2022-09-09T16:07:03;2.40;;;2.30;;
65567;SDS011;52211;50.154;8.682;2022-09-09T16:09:34;2.67;;;2.53;;
65567;SDS011;52211;50.154;8.682;2022-09-09T16:12:04;2.70;;;2.60;;
65567;SDS011;52211;50.154;8.682;2022-09-09T16:14:38;2.47;;;2.37;;
65567;SDS011;52211;50.154;8.682;2022-09-09T16:17:06;2.53;;;2.43;;
65567;SDS011;52211;50.154;8.682;2022-09-09T16:19:36;2.50;;;2.40;;
65567;SDS011;52211;50.154;8.682;2022-09-09T16:22:03;2.40;;;2.23;;
65567;SDS011;52211;50.154;8.682;2022-09-09T16:24:32;3.10;;;2.90;;
65567;SDS011;52211;50.154;8.682;2022-09-09T16:26:59;2.67;;;2.57;;
65567;SDS011;52211;50.154;8.682;2022-09-09T16:29:26;3.00;;;2.80;;
65567;SDS011;52211;50.154;8.682;2022-09-09T16:31:53;2.80;;;2.70;;
65567;SDS011;52211;50.154;8.682;2022-09-09T16:34:27;3.07;;;2.87;;
65567;SDS011;52211;50.154;8.682;2022-09-09T16:36:57;4.67;;;3.00;;
65567;SDS011;52211;50.154;8.682;2022-09-09T16:39:26;3.07;;;2.87;;
65567;SDS011;52211;50.154;8.682;2022-09-09T16:41:53;3.80;;;2.73;;
65567;SDS011;52211;50.154;8.682;2022-09-09T16:44:21;2.80;;;2.60;;
65567;SDS011;52211;50.154;8.682;2022-09-09T16:46:50;2.97;;;2.80;;
65567;SDS011;52211;50.154;8.682;2022-09-09T16:49:28;3.20;;;3.00;;
65567;SDS011;52211;50.154;8.682;2022-09-09T16:51:58;2.87;;;2.77;;
65567;SDS011;52211;50.154;8.682;2022-09-09T16:54:26;2.93;;;2.70;;
65567;SDS011;52211;50.154;8.682;2022-09-09T16:56:55;2.80;;;2.70;;
65567;SDS011;52211;50.154;8.682;2022-09-09T16:59:24;3.30;;;3.10;;
65567;SDS011;52211;50.154;8.682;2022-09-09T17:01:52;2.90;;;2.80;;
65567;SDS011;52211;50.154;8.682;2022-09-09T17:04:24;2.97;;;2.87;;
65567;SDS011;52211;50.154;8.682;2022-09-09T17:06:54;2.93;;;2.83;;
65567;SDS011;52211;50.154;8.682;2022-09-09T17:09:23;3.00;;;2.83;;
65567;SDS011;52211;50.154;8.682;2022-09-09T17:11:55;2.80;;;2.70;;
65567;SDS011;52211;50.154;8.682;2022-09-09T17:14:24;3.00;;;2.80;;
65567;SDS011;52211;50.154;8.682;2022-09-09T17:16:53;2.90;;;2.63;;
65567;SDS011;52211;50.154;8.682;2022-09-09T17:19:20;2.80;;;2.70;;
65567;SDS011;52211;50.154;8.682;2022-09-09T17:21:55;3.60;;;2.80;;
65567;SDS011;52211;50.154;8.682;2022-09-09T17:24:42;2.80;;;2.70;;
65567;SDS011;52211;50.154;8.682;2022-09-09T17:27:11;2.83;;;2.73;;
65567;SDS011;52211;50.154;8.682;2022-09-09T17:29:44;2.77;;;2.67;;
65567;SDS011;52211;50.154;8.682;2022-09-09T17:32:12;2.97;;;2.73;;
65567;SDS011;52211;50.154;8.682;2022-09-09T17:34:39;3.50;;;2.97;;
65567;SDS011;52211;50.154;8.682;2022-09-09T17:37:20;3.10;;;2.90;;
65567;SDS011;52211;50.154;8.682;2022-09-09T17:39:49;2.90;;;2.80;;
65567;SDS011;52211;50.154;8.682;2022-09-09T17:42:19;4.07;;;2.90;;
65567;SDS011;52211;50.154;8.682;2022-09-09T17:44:46;2.80;;;2.63;;
65567;SDS011;52211;50.154;8.682;2022-09-09T17:47:15;3.27;;;3.07;;
65567;SDS011;52211;50.154;8.682;2022-09-09T17:49:42;2.70;;;2.60;;
65567;SDS011;52211;50.154;8.682;2022-09-09T17:52:24;3.30;;;3.10;;
65567;SDS011;52211;50.154;8.682;2022-09-09T17:54:57;2.77;;;2.57;;
65567;SDS011;52211;50.154;8.682;2022-09-09T17:57:25;3.93;;;2.93;;
65567;SDS011;52211;50.154;8.682;2022-09-09T17:59:53;2.70;;;2.50;;
65567;SDS011;52211;50.154;8.682;2022-09-09T18:02:24;2.90;;;2.70;;
65567;SDS011;52211;50.154;8.682;2022-09-09T18:04:51;2.60;;;2.50;;
65567;SDS011;52211;50.154;8.682;2022-09-09T18:07:19;2.03;;;2.00;;
65567;SDS011;52211;50.154;8.682;2022-09-09T18:09:49;2.90;;;2.20;;